Diba, Oman

6:29 PM GST on July 30, 2016 (GMT +0400)
Ras Al Khaimah International | | Change Station

Elev 102 ft 25.61 °N, 55.94 °E | Updated 29 minutes ago

Clear
Clear
99 °F
Feels Like 108 °F
N
10
Wind Variable Wind from NNW

Today
High -- | Low -- °F
--% Chance of Precip.
Yesterday
High -- | Low -- °F
Precip. -- in
Pressure 29.47 in
Visibility -9999.0 miles
Clouds
Heat Index 108 °F
Dew Point 72 °F
Humidity 42%
Rainfall 0.00 in
Snow Depth Not available.
5:40 AM 7:01 PM
Waning Crescent, 13% visible
METAR OMRK 301400Z 34009KT CAVOK 37/22 Q0998 A2948
Pressure 29.47 in
Visibility -9999.0 miles
Clouds
Heat Index 108 °F
Dew Point 72 °F
Humidity 42%
Rainfall 0.00 in
Snow Depth Not available.
5:40 AM 7:01 PM
Waning Crescent, 13% visible
METAR OMRK 301400Z 34009KT CAVOK 37/22 Q0998 A2948

10-Day Weather Forecast

No radar image for this location.
×

Almanac

Astronomy

Jul. 30, 2016 Rise Set
Actual Time
Civil Twilight
Nautical Twilight
Astronomical Twilight
Moon
Length of Visible Light
Length of Day
Tomorrow will be .
, % of the Moon is Illuminated

Today's Extremes

Country Highs Country Lows

Community

WunderPhotos

Upload Photos

1,928,565 photos uploaded!

WunderBlog® & News

Nearby

Air Quality

  Air Quality AQ Index Pollutant
Not available.

Snow Depth

Station Depth Elevation

Earthquake Activity

City Distance Mag. Time & Date
Minimum magnitude displayed is 2.5.

Coastal Water Temperatures

Place Temperature

Stations

Nearby Weather Stations

Station Location Temp. Windchill Dew Point Humidity Wind Precip. Elev Updated Type